• Join FlightAware (Why Join?)
  • Login
  • US Flag 
12:52AM EDT


 

Airport Tracker/Info


-or-


 

Live Flight TrackerFlight Track Log ✈ AWE1695 ✈ 31-Jul-2013 ✈ KCLT - KRSW

Flight Track Log - Related Links

Times and Time Zones

All times are in EDT time to prevent confusion due to time zone crossing. See the AWE1695 flight status page for this flight to view local times or setup timezone preferences in your user account.

Time Position Orientation Groundspeed Altitude Reporting Facility
EDT Latitude Longitude Course Direction KTS MPH feet Rate Location/Type
03:02PM 35.1850 -80.9536 188° South 172 198 1,800  Level Atlanta Center
03:03PM 35.1061 -80.9667 188° South 239 275 4,800 2,220 Climbing Atlanta Center
03:04PM 34.8645 -81.0167 180° South  Level FlightAware Approximate
03:04PM 35.0692 -80.9883 206° Southwest 265 305 6,500  Level Atlanta Center
03:05PM 34.7407 -81.0410 190° South  Level FlightAware Approximate
03:05PM 35.0008 -81.0164 199° South 275 316 8,000  Level Atlanta Center
03:06PM 34.6310 -81.0839 192° South  Level FlightAware Approximate
03:06PM 34.9172 -81.0042 173° South 295 339 10,500  Level Atlanta Center
03:07PM 34.5074 -81.1099 188° South  Level FlightAware Approximate
03:07PM 34.8311 -80.9844 169° South 311 358 12,800  Level Atlanta Center
03:09PM 34.6322 -80.8967 160° South 354 407 17,300 1,980 Climbing Jacksonville Center
03:10PM 34.5333 -80.8511 159° South 374 430 19,200 1,980 Climbing Jacksonville Center
03:11PM 34.4294 -80.8786 192° South 366 421 21,300 1,980 Climbing Jacksonville Center
03:12PM 34.3281 -80.9314 203° Southwest 384 442 23,200 1,680 Climbing Jacksonville Center
03:13PM 34.2286 -80.9764 201° Southwest 393 452 24,700 1,140 Climbing Jacksonville Center
03:14PM 34.1189 -81.0239 200° South 398 458 25,500 1,560 Climbing Jacksonville Center
03:15PM 34.0047 -81.0714 199° South 422 486 27,900 1,560 Climbing Jacksonville Center
03:16PM 33.8992 -81.1211 201° Southwest 427 491 28,700 1,020 Climbing Jacksonville Center
03:17PM 33.7872 -81.1708 200° South 427 491 30,000 600 Climbing Jacksonville Center
03:18PM 33.6856 -81.2203 202° Southwest 427 491 30,000 600 Level Jacksonville Center
03:19PM 33.5756 -81.2672 200° South 427 491 31,200 1,260 Climbing Jacksonville Center
03:20PM 33.4675 -81.3164 201° Southwest 427 491 32,600 1,140 Climbing Jacksonville Center
03:21PM 33.3472 -81.3683 200° South 427 491 33,500 660 Climbing Jacksonville Center
03:22PM 33.2414 -81.4100 198° South 420 483 34,000 180 Climbing Jacksonville Center
03:23PM 33.1372 -81.4389 193° South 420 483 33,900  Descending Jacksonville Center
03:24PM 33.0208 -81.4706 193° South 420 483 34,000  Climbing Jacksonville Center
03:25PM 32.9042 -81.4972 191° South 425 489 34,000  Level Jacksonville Center
03:26PM 32.7897 -81.5286 193° South 430 495 34,000  Level Jacksonville Center
03:27PM 32.6669 -81.5625 193° South 423 487 34,000  Level Jacksonville Center
03:28PM 32.5606 -81.5911 193° South 428 493 34,000  Level Jacksonville Center
03:29PM 32.4272 -81.6153 189° South 445 512 34,000  Level Jacksonville Center
03:30PM 32.3128 -81.6439 192° South 438 504 34,000  Level Jacksonville Center
03:31PM 32.2006 -81.6847 197° South 425 489 34,000  Level Jacksonville Center
03:32PM 32.0983 -81.7153 194° South 419 482 34,000  Level Jacksonville Center
03:33PM 31.9672 -81.7514 193° South 430 495 34,000  Level Jacksonville Center
03:34PM 31.8444 -81.7822 192° South 443 510 34,000  Level Jacksonville Center
03:35PM 31.7256 -81.8081 190° South 443 510 34,000  Level Jacksonville Center
03:36PM 31.6214 -81.8386 194° South 436 502 34,000  Level Jacksonville Center
03:37PM 31.4944 -81.8864 198° South 431 496 34,000  Level Jacksonville Center
03:38PM 31.3800 -81.9264 197° South 431 496 34,000  Level Jacksonville Center
03:39PM 31.2653 -81.9714 199° South 437 503 34,000 -60 Level Jacksonville Center
03:40PM 31.1550 -82.0283 204° Southwest 442 509 33,900  Descending Jacksonville Center
03:41PM 31.0447 -82.0803 202° Southwest 437 503 34,000  Climbing Jacksonville Center
03:42PM 30.9278 -82.0814 180° South 432 497 33,900 -60 Descending Jacksonville Center
03:43PM 30.8211 -82.0433 163° South 419 482 33,900  Level Jacksonville Center
03:44PM 30.7042 -82.0275 173° South 429 494 34,000  Climbing Jacksonville Center
03:45PM 30.5853 -82.0358 183° South 429 494 34,000  Level Jacksonville Center
03:46PM 30.4494 -82.0394 181° South 444 511 34,000  Level Jacksonville Center
03:47PM 30.3264 -82.0528 185° South 444 511 34,000  Level Jacksonville Center
03:48PM 30.2053 -82.0706 187° South 442 509 34,000  Level Jacksonville Center
03:49PM 30.0800 -82.0619 177° South 442 509 34,000  Level Jacksonville Center
03:50PM 29.9653 -82.0533 176° South 447 514 34,000 240 Level Jacksonville Center
03:51PM 29.8397 -82.0378 174° South 447 514 34,500 -300 Climbing Jacksonville Center
03:52PM 29.7186 -82.0197 173° South 447 514 33,500 -780 Descending Jacksonville Center
03:53PM 29.5933 -82.0017 173° South 447 514 33,000 -300 Descending Jacksonville Center
03:54PM 29.4719 -81.9886 175° South 447 514 33,000  Level Jacksonville Center
03:55PM 29.3489 -81.9706 173° South 447 514 33,000  Level Jacksonville Center
03:56PM 29.2150 -81.9386 168° South 447 514 33,000 -360 Level Jacksonville Center
03:58PM 28.9406 -81.8839 170° South 451 519 31,900 -660 Descending Miami Center
03:59PM 28.8206 -81.8619 171° South 446 513 31,000 -960 Descending Miami Center
04:00PM 28.6919 -81.8372 170° South 446 513 30,000 -1,920 Descending Miami Center
04:01PM 28.5678 -81.8128 170° South 451 519 27,200 -1,500 Descending Miami Center
04:02PM 28.4478 -81.7789 166° South 451 519 27,000 -480 Descending Miami Center
04:03PM 28.3239 -81.7431 166° South 451 519 26,300 -960 Descending Miami Center
04:04PM 28.2022 -81.7069 165° South 451 519 25,100 -1,320 Descending Miami Center
04:05PM 28.0800 -81.6736 166° South 451 519 23,700 -1,080 Descending Miami Center
04:06PM 27.9711 -81.6853 185° South 438 504 23,000 -480 Descending Miami Center
04:07PM 27.8483 -81.6825 179° South 438 504 22,800 -780 Descending Miami Center
04:08PM 27.7197 -81.6558 170° South 433 498 21,500 -1,320 Descending Miami Center
04:09PM 27.6183 -81.6283 166° South 427 491 20,200 -1,260 Descending Miami Center
04:10PM 27.4983 -81.6022 169° South 415 478 19,000 -900 Descending Miami Center
04:11PM 27.3906 -81.5744 167° South 405 466 18,400 -1,320 Descending Miami Center
04:12PM 27.2953 -81.5494 167° South 399 459 16,400 -2,820 Descending Miami Center
04:13PM 27.1964 -81.5153 163° South 389 448 12,800 -3,120 Descending Miami Center
04:14PM 27.1083 -81.4603 151° Southeast 373 429 10,200 -1,440 Descending Miami Center
04:15PM 27.0219 -81.4219 158° South 327 376 10,000 -180 Descending Miami Center
04:16PM 26.9456 -81.3908 160° South 295 339 9,900 -780 Descending Miami Center
04:17PM 26.8733 -81.3603 159° South 282 325 8,500 -1,500 Descending Miami Center
04:18PM 26.7992 -81.3317 161° South 282 325 7,000 -1,260 Descending Miami Center
04:19PM 26.7292 -81.3011 159° South 282 325 6,000 -1,140 Descending Miami Center
04:20PM 26.6611 -81.2753 161° South 275 316 4,800 -1,260 Descending Miami Center
04:21PM 26.5908 -81.2494 162° South 270 311 3,500 -900 Descending Miami Center
04:22PM 26.5514 -81.3131 235° Southwest 219 252 3,000 -540 Descending Miami Center
04:24PM 26.5440 -81.5337 197° South  Level Estimated
04:31PM 26.5333 -81.7500 318° Northwest  Level FlightAware Approximate